Weather observations for the past three days for
Hebbronville, Jim Hogg County Airport
| Date | Time (cdt) | Wind (kph) | Vis. (km) | Weather | Sky Cond. | Temperature (ºC) | Relative Humidity | Wind Chill (°C) | Heat Index (°C) | Pressure | Precipitation (cm) | ||||||
|---|---|---|---|---|---|---|---|---|---|---|---|---|---|---|---|---|---|
| Air | Dwpt | 6 hour | altimeter (cm) | sea level (mb) | 1 hr | 3 hr | 6 hr | ||||||||||
| Max. | Min. | ||||||||||||||||
| 10 | 16:55 | SE 30 | 16.09 | Fair | CLR | 31.5 | 25.8 | 72% | 40 | 75.77 | 0.0 | ||||||
| 10 | 16:35 | E 22 | 16.09 | Fair | CLR | 32.6 | 25.7 | 67% | 41 | 75.77 | 0.0 | ||||||
| 10 | 16:15 | SE 11 | 14.48 | Fair | CLR | 33.5 | 24.1 | 58% | 40 | 75.77 | 0.0 | ||||||
| 10 | 15:55 | SE 13 | 14.48 | Fair | CLR | 33.2 | 24.2 | 59% | 40 | 75.79 | 0.0 | ||||||
| 10 | 15:35 | SE 17 | 14.48 | Fair | CLR | 32.9 | 24.5 | 61% | 40 | 75.79 | 0.0 | ||||||
| 10 | 15:15 | SE 17 | 14.48 | A Few Clouds | FEW330 | 32.4 | 24.6 | 63% | 39 | 75.82 | 0.0 | ||||||
| 10 | 14:55 | SE 17 G 31 | 14.48 | A Few Clouds | FEW330 | 32 | 24.6 | 65% | 39 | 75.84 | 0.0 | ||||||
| 10 | 14:35 | E 19 | 16.09 | Fair | CLR | 32.5 | 24.9 | 64% | 40 | 75.84 | 0.0 | ||||||
| 10 | 14:15 | S 19 | 14.48 | A Few Clouds | FEW260 | 31.8 | 25.1 | 68% | 39 | 75.87 | 0.0 | ||||||
| 10 | 13:55 | SE 19 G 28 | 16.09 | A Few Clouds | FEW280 | 31.3 | 25.3 | 70% | 39 | 75.87 | 0.0 | ||||||
| 10 | 13:35 | E 17 | 14.48 | Partly Cloudy | FEW280 SCT360 | 30.9 | 25.1 | 71% | 38 | 75.87 | 0.0 | ||||||
| 10 | 13:15 | E 17 | 16.09 | A Few Clouds | FEW340 | 30.9 | 25.3 | 72% | 38 | 75.87 | 0.0 | ||||||
| 10 | 12:55 | SE 19 | 14.48 | A Few Clouds | FEW340 | 31.4 | 24.8 | 31.4 | 22.2 | 68% | 38 | 75.9 | 0.0 | ||||
| 10 | 12:35 | E 19 | 16.09 | Fair | CLR | 30.6 | 24.8 | 71% | 37 | 75.9 | 0.0 | ||||||
| 10 | 12:15 | SE 17 | 16.09 | Fair | CLR | 29.9 | 25.1 | 75% | 36 | 75.9 | 0.0 | ||||||
| 10 | 11:55 | SE 13 | 16.09 | Fair | CLR | 28.4 | 25.3 | 83% | 34 | 75.9 | 0.0 | ||||||
| 10 | 11:35 | SE 13 | 16.09 | Fair | CLR | 28.2 | 25.4 | 85% | 33 | 75.9 | 0.0 | ||||||
| 10 | 11:15 | SE 9 | 14.48 | Partly Cloudy | SCT009 | 26.4 | 24.9 | 92% | 29 | 75.9 | 0.0 | ||||||
| 10 | 10:55 | SE 9 | 14.48 | Overcast | OVC007 | 25.2 | 24.6 | 96% | 26 | 75.9 | 0.0 | ||||||
| 10 | 10:35 | E 13 | 16.09 | Overcast | OVC005 | 24.6 | 24.5 | 99% | 24 | 75.9 | 0.0 | ||||||
| 10 | 10:15 | SE 13 | 12.87 | Overcast | OVC003 | 23.9 | 23.9 | 100% | 22 | 75.9 | 0.0 | ||||||
| 10 | 09:55 | SE 11 | 12.87 | Overcast | OVC002 | 23.3 | 23.3 | 100% | 75.9 | 0.0 | |||||||
| 10 | 09:35 | SE 9 | 9.66 | Fog/Mist | OVC003 | 23.1 | 23.1 | 100% | 75.9 | 0.0 | |||||||
| 10 | 09:15 | SE 11 | 11.27 | Overcast | OVC003 | 22.9 | 22.9 | 100% | 75.9 | 0.0 | |||||||
| 10 | 08:55 | E 13 | 9.66 | Fog/Mist | OVC003 | 22.7 | 22.7 | 100% | 75.9 | 0.0 | |||||||
| 10 | 08:35 | SE 11 | 11.27 | Overcast | OVC003 | 22.5 | 22.5 | 100% | 75.87 | 0.0 | |||||||
| 10 | 08:15 | SE 11 | 8.05 | Fog/Mist | OVC003 | 22.5 | 22.5 | 100% | 75.87 | 0.0 | |||||||
| 10 | 07:55 | SE 7 | 4.83 | Fog/Mist | OVC003 | 22.5 | 22.5 | 100% | 75.84 | 0.0 | |||||||
| 10 | 07:15 | Vrbl 7 | 1.61 | Fog/Mist | VV003 | 22.3 | 22.3 | 100% | 75.82 | 0.0 | |||||||
| 10 | 06:55 | S 7 | 2.01 | Fog/Mist | OVC003 | 22.3 | 22.3 | 22.8 | 21.3 | 100% | 75.79 | 0.0 | |||||
| 10 | 06:35 | Vrbl 7 | 2.41 | Fog/Mist | OVC003 | 22.3 | 22.3 | 100% | 75.79 | 0.0 | |||||||
| 10 | 06:15 | E 7 | 3.22 | Fog/Mist | OVC003 | 22.3 | 22.3 | 100% | 75.79 | 0.0 | |||||||
| 10 | 05:55 | S 6 | 2.41 | Fog/Mist | OVC003 | 22.3 | 22.3 | 100% | 75.79 | 0.0 | |||||||
| 10 | 05:35 | SE 7 | 4.02 | Fog/Mist | OVC003 | 22.4 | 22.4 | 100% | 75.77 | 0.0 | |||||||
| 10 | 05:15 | SE 6 | 8.05 | Fog/Mist | OVC002 | 22.4 | 22.4 | 100% | 75.79 | 0.0 | |||||||
| 10 | 04:55 | Calm | 12.87 | Overcast | OVC003 | 22.1 | 22.1 | 100% | 75.79 | 0.0 | |||||||
| 10 | 04:35 | Calm | 9.66 | Fog/Mist | FEW001 OVC004 | 21.7 | 21.7 | 100% | 75.79 | 0.0 | |||||||
| 10 | 04:15 | E 7 | 11.27 | Mostly Cloudy | BKN006 | 21.4 | 21.4 | 100% | 75.79 | 0.0 | |||||||
| 10 | 03:55 | Calm | 12.87 | Fair | CLR | 21.6 | 21.6 | 100% | 75.79 | 0.0 | |||||||
| 10 | 03:35 | Calm | 12.87 | Fair | CLR | 21.8 | 21.8 | 100% | 75.79 | 0.0 | |||||||
| 10 | 03:15 | SE 6 | 12.87 | Fair | CLR | 22 | 22 | 100% | 75.79 | 0.0 | |||||||
| 10 | 02:55 | S 6 | 14.48 | Fair | CLR | 22 | 22 | 100% | 75.79 | 0.0 | |||||||
| 10 | 02:35 | E 9 | 14.48 | Fair | CLR | 22.2 | 22.2 | 100% | 75.82 | 0.0 | |||||||
| 10 | 02:15 | S 6 | 14.48 | Fair | CLR | 22.1 | 22.1 | 100% | 75.82 | 0.0 | |||||||
| 10 | 01:55 | S 7 | 14.48 | Fair | CLR | 22.2 | 22.2 | 100% | 75.79 | 0.0 | |||||||
| 10 | 01:35 | S 9 | 14.48 | Fair | CLR | 22.4 | 22.4 | 100% | 75.82 | 0.0 | |||||||
| 10 | 01:15 | S 7 | 14.48 | Fair | CLR | 22.6 | 22.6 | 100% | 75.82 | 0.0 | |||||||
| 10 | 00:55 | SE 6 | 14.48 | Fair | CLR | 22.7 | 22.7 | 31.4 | 22.7 | 100% | 75.82 | 0.0 | |||||
| 10 | 00:35 | SE 7 | 16.09 | Fair | CLR | 22.8 | 22.8 | 100% | 75.82 | 0.0 | |||||||
| 10 | 00:15 | SE 7 | 16.09 | Fair | CLR | 23.3 | 23 | 98% | 75.82 | 0.0 | |||||||
| 09 | 23:55 | SE 11 | 16.09 | Fair | CLR | 23.5 | 22.6 | 95% | 75.82 | 0.0 | |||||||
| 09 | 23:35 | S 9 | 16.09 | Fair | CLR | 23.8 | 22.6 | 93% | 75.79 | 0.0 | |||||||
| 09 | 23:15 | S 9 | 16.09 | Fair | CLR | 24.1 | 22.5 | 91% | 24 | 75.79 | 0.0 | ||||||
| 09 | 22:55 | S 11 | 16.09 | Fair | CLR | 24.4 | 22.2 | 88% | 25 | 75.77 | 0.0 | ||||||
| 09 | 22:35 | S 9 | 16.09 | Fair | CLR | 24.8 | 22 | 84% | 25 | 75.77 | 0.0 | ||||||
| 09 | 22:15 | SE 11 | 16.09 | Fair | CLR | 25.5 | 21.7 | 80% | 27 | 75.77 | 0.0 | ||||||
| 09 | 21:55 | SE 17 | 16.09 | Fair | CLR | 26.2 | 21.3 | 74% | 28 | 75.74 | 0.0 | ||||||
| 09 | 21:35 | SE 17 | 16.09 | Fair | CLR | 26.6 | 22 | 76% | 29 | 75.74 | 0.0 | ||||||
| 09 | 21:15 | SE 17 | 16.09 | Fair | CLR | 27.3 | 22.3 | 74% | 30 | 75.69 | 0.0 | ||||||
| 09 | 20:55 | E 17 | 16.09 | Fair | CLR | 28.1 | 22.3 | 71% | 31 | 75.67 | 0.0 | ||||||
| 09 | 20:35 | E 13 | 14.48 | Fair | CLR | 28.4 | 21.6 | 67% | 31 | 75.64 | 0.0 | ||||||
| 09 | 20:15 | SE 9 | 12.87 | Fair | CLR | 28.6 | 21.3 | 65% | 31 | 75.59 | 0.0 | ||||||
| 09 | 19:55 | E 11 | 14.48 | Fair | CLR | 30.1 | 21 | 58% | 33 | 75.59 | 0.0 | ||||||
| 09 | 19:35 | E 13 | 14.48 | Fair | CLR | 30.7 | 20.7 | 55% | 33 | 75.59 | 0.0 | ||||||
| 09 | 19:15 | E 15 | 14.48 | Fair | CLR | 31.2 | 20.7 | 54% | 34 | 75.59 | 0.0 | ||||||
| 09 | 18:55 | SE 13 | 14.48 | Fair | CLR | 31.3 | 20 | 31.8 | 28.2 | 51% | 33 | 75.59 | 0.0 | ||||
| 09 | 18:35 | E 11 | 12.87 | Fair | CLR | 31.7 | 20.1 | 50% | 34 | 75.59 | 0.0 | ||||||
| 09 | 18:15 | E 11 | 14.48 | Fair | CLR | 31.4 | 19.7 | 50% | 33 | 75.59 | 0.0 | ||||||
| 09 | 17:55 | Vrbl 7 | 14.48 | Fair | CLR | 31.5 | 20 | 50% | 34 | 75.59 | 0.0 | ||||||
| 09 | 17:35 | N 6 | 14.48 | Fair | CLR | 31.3 | 19.2 | 49% | 33 | 75.59 | 0.0 | ||||||
| 09 | 17:15 | S 11 | 16.09 | Fair | CLR | 31.4 | 19.7 | 50% | 33 | 75.59 | 0.0 | ||||||
| 09 | 16:55 | Calm | 14.48 | Fair | CLR | 30.9 | 19.5 | 51% | 33 | 75.59 | 0.0 | ||||||
| 09 | 16:35 | Calm | 14.48 | Fair | CLR | 30.9 | 19.3 | 50% | 32 | 75.62 | 0.0 | ||||||
| 09 | 16:15 | SW 6 | 14.48 | Fair | CLR | 30.8 | 19.4 | 51% | 32 | 75.62 | 0.0 | ||||||
| 09 | 15:55 | Calm | 14.48 | Fair | CLR | 30.5 | 20 | 53% | 32 | 75.64 | 0.0 | ||||||
| 09 | 15:35 | Calm | 16.09 | Fair | CLR | 30.3 | 20.5 | 56% | 33 | 75.67 | 0.0 | ||||||
| 09 | 15:15 | SW 6 | 14.48 | Fair | CLR | 30 | 20.6 | 57% | 32 | 75.67 | 0.0 | ||||||
| 09 | 14:55 | Vrbl 11 | 16.09 | Fair | CLR | 30.2 | 21.1 | 58% | 33 | 75.69 | 0.0 | ||||||
| 09 | 14:35 | SW 13 | 14.48 | A Few Clouds | FEW350 | 30.1 | 21.2 | 59% | 33 | 75.69 | 0.0 | ||||||
| 09 | 14:15 | Calm | 16.09 | A Few Clouds | FEW360 | 29.2 | 20.9 | 61% | 32 | 75.72 | 0.0 | ||||||
| 09 | 13:55 | Vrbl 7 | 14.48 | Partly Cloudy | FEW280 SCT310 SCT330 | 29 | 21.4 | 64% | 32 | 75.72 | 0.0 | ||||||
| 09 | 13:35 | Vrbl 7 | 14.48 | A Few Clouds | FEW280 | 28.8 | 21.9 | 66% | 32 | 75.74 | 0.0 | ||||||
| 09 | 13:15 | SW 11 | 14.48 | A Few Clouds | FEW330 | 28.7 | 21.6 | 66% | 31 | 75.77 | 0.0 | ||||||
| 09 | 12:55 | Vrbl 9 | 16.09 | A Few Clouds | FEW320 | 28 | 21.6 | 28 | 20.7 | 68% | 30 | 75.79 | 0.0 | ||||
| 09 | 12:35 | SW 11 | 16.09 | Fair | CLR | 27.9 | 21.9 | 70% | 30 | 75.82 | 0.0 | ||||||
| 09 | 12:15 | Calm | 16.09 | Fair | CLR | 26.8 | 21.9 | 75% | 29 | 75.84 | 0.0 | ||||||
| 09 | 11:55 | Vrbl 6 | 16.09 | Fair | CLR | 26.2 | 21.6 | 76% | 28 | 75.84 | 0.0 | ||||||
| 09 | 11:35 | Calm | 14.48 | Fair | CLR | 26.3 | 22.1 | 78% | 28 | 75.84 | 0.0 | ||||||
| 09 | 11:15 | Vrbl 7 | 16.09 | Fair | CLR | 25.4 | 22.1 | 82% | 27 | 75.87 | 0.0 | ||||||
| 09 | 10:55 | S 7 | 14.48 | Fair | CLR | 25.1 | 22 | 83% | 26 | 75.87 | 0.0 | ||||||
| 09 | 10:35 | Calm | 14.48 | Fair | CLR | 24.5 | 22 | 86% | 25 | 75.84 | 0.0 | ||||||
| 09 | 10:15 | SE 9 | 14.48 | Fair | CLR | 24 | 21.7 | 87% | 24 | 75.84 | 0.0 | ||||||
| 09 | 09:55 | SE 9 | 12.87 | Fair | CLR | 23.8 | 22 | 90% | 75.84 | 0.0 | |||||||
| 09 | 09:35 | SE 9 | 16.09 | Fair | CLR | 23.2 | 21.9 | 92% | 75.82 | 0.0 | |||||||
| 09 | 09:15 | E 7 | 16.09 | Fair | CLR | 22.4 | 22 | 98% | 75.82 | 0.0 | |||||||
| 09 | 08:55 | SE 6 | 16.09 | Fair | CLR | 21.3 | 21.3 | 100% | 75.84 | 0.0 | |||||||
| 09 | 08:35 | E 6 | 16.09 | Fair | CLR | 21.1 | 21.1 | 100% | 75.84 | 0.0 | |||||||
| 09 | 08:15 | E 7 | 16.09 | Fair | CLR | 21.1 | 21.1 | 100% | 75.77 | 0.0 | |||||||
| 09 | 07:55 | SE 7 | 16.09 | Fair | CLR | 20.9 | 20.9 | 100% | 75.77 | 0.0 | |||||||
| 09 | 07:35 | E 9 | 16.09 | Fair | CLR | 20.9 | 20.9 | 100% | 75.69 | 0.0 | |||||||
| 09 | 07:15 | SE 11 | 16.09 | Fair | CLR | 20.8 | 20.8 | 100% | 75.69 | 0.0 | |||||||
| 09 | 06:55 | SE 15 | 16.09 | A Few Clouds | FEW015 | 20.8 | 20.8 | 25.3 | 20.2 | 100% | 75.72 | 0.0 | 0.03 | 2.84 | |||
| 09 | 06:35 | E 19 | 12.87 | Mostly Cloudy | SCT014 BKN110 | 21.1 | 21.1 | 100% | 75.67 | 0.0 | 0.03 | ||||||
| 09 | 06:15 | SE 17 G 28 | 16.09 | A Few Clouds | FEW110 | 21.6 | 21.6 | 100% | 75.69 | 0.0 | |||||||
| 09 | 05:55 | SE 26 G 41 | 14.48 | Mostly Cloudy | FEW002 BKN009 | 21.5 | 21.5 | 100% | 75.59 | 0.0 | 0.1 | ||||||
| 09 | 05:35 | SE 24 | 11.27 | Light Rain | SCT002 OVC016 | 21.5 | 21.5 | 100% | 75.64 | 0.0 | 0.08 | ||||||
| 09 | 05:15 | SE 24 | 14.48 | Light Rain | FEW002 SCT041 | 20.8 | 20.8 | 100% | 75.64 | 0.0 | 0.03 | ||||||
| 09 | 04:55 | E 6 | 16.09 | A Few Clouds | FEW009 | 20.6 | 20.6 | 100% | 75.74 | 0.0 | 0.76 | ||||||
| 09 | 04:35 | Calm | 14.48 | Light Rain | BKN019 | 20.3 | 20.3 | 100% | 75.74 | 0.0 | 0.76 | ||||||
| 09 | 04:15 | N 22 | 3.22 | Rain Fog/Mist | FEW002 OVC026 | 20.2 | 20.2 | 100% | 75.72 | 0.0 | 0.74 | ||||||
| 09 | 03:55 | NW 20 G 35 | 2.01 | Heavy Rain Fog/Mist | FEW002 OVC010 | 21.1 | 21.1 | 100% | 75.82 | 0.0 | 1.96 | 1.96 | |||||
| 09 | 03:35 | W 13 | 4.83 | Heavy Rain Fog/Mist | FEW002 OVC007 | 23.8 | 23.8 | 100% | 75.79 | 0.0 | 0.48 | ||||||
| 09 | 03:15 | E 11 | 12.87 | Light Rain | OVC004 | 23.8 | 23.8 | 100% | 75.57 | 0.0 | |||||||
| 09 | 02:55 | E 19 | 14.48 | Mostly Cloudy | BKN002 | 24 | 24 | 100% | 23 | 75.51 | 0.0 | ||||||
| 09 | 02:35 | E 17 | 14.48 | A Few Clouds | FEW002 | 24.2 | 24.2 | 100% | 23 | 75.57 | 0.0 | ||||||
| 09 | 02:15 | E 11 | 16.09 | Fair | CLR | 24.4 | 24.4 | 100% | 24 | 75.59 | 0.0 | ||||||
| 09 | 01:55 | NE 7 | 16.09 | Fair | CLR | 24.7 | 24.7 | 100% | 24 | 75.67 | 0.0 | ||||||
| 09 | 01:35 | Calm | 12.87 | Fair | CLR | 24.8 | 24.8 | 100% | 25 | 75.67 | 0.0 | ||||||
| 09 | 01:15 | NE 6 | 12.87 | Fair | CLR | 24.9 | 24.9 | 100% | 25 | 75.67 | 0.0 | ||||||
| 09 | 00:55 | Calm | 11.27 | Partly Cloudy | SCT003 | 25 | 25 | 29.1 | 25 | 100% | 25 | 75.72 | 0.0 | 0.03 | 0.03 | ||
| 09 | 00:35 | SE 17 | 11.27 | Light Rain | BKN005 | 25.2 | 25.2 | 100% | 26 | 75.67 | 0.0 | 0.03 | |||||
| 09 | 00:15 | Calm | 6.44 | Light Rain Fog/Mist | FEW001 | 26 | 25.2 | 95% | 28 | 75.69 | 0.0 | 0.03 | |||||
| 08 | 23:55 | SE 13 | 14.48 | Fair | CLR | 26.4 | 25.5 | 95% | 29 | 75.64 | 0.0 | ||||||
| 08 | 23:35 | SE 9 | 16.09 | Fair | CLR | 26.5 | 25.5 | 94% | 30 | 75.69 | 0.0 | ||||||
| 08 | 23:15 | SE 11 | 14.48 | Fair | CLR | 26.5 | 25.3 | 93% | 30 | 75.64 | 0.0 | ||||||
| 08 | 22:55 | SE 9 | 16.09 | Fair | CLR | 26.5 | 24.9 | 91% | 29 | 75.64 | 0.0 | ||||||
| 08 | 22:35 | SE 9 | 16.09 | Fair | CLR | 26.7 | 24.7 | 89% | 30 | 75.62 | 0.0 | ||||||
| 08 | 22:15 | SE 11 | 16.09 | Fair | CLR | 27.1 | 24.6 | 86% | 31 | 75.62 | 0.0 | ||||||
| 08 | 21:55 | SE 6 | 16.09 | Fair | CLR | 27 | 23.7 | 82% | 30 | 75.59 | 0.0 | ||||||
| 08 | 21:35 | SE 6 | 16.09 | Fair | CLR | 26.9 | 23.5 | 82% | 30 | 75.59 | 0.0 | ||||||
| 08 | 21:15 | Calm | 16.09 | Fair | CLR | 27.2 | 23.4 | 80% | 30 | 75.54 | 0.0 | ||||||
| 08 | 20:55 | S 6 | 16.09 | Fair | CLR | 27.3 | 23.3 | 79% | 30 | 75.54 | 0.0 | ||||||
| 08 | 20:35 | S 6 | 16.09 | Fair | CLR | 27.7 | 23.3 | 77% | 31 | 75.49 | 0.0 | ||||||
| 08 | 20:15 | S 6 | 16.09 | Fair | CLR | 28.5 | 23.2 | 73% | 32 | 75.51 | 0.0 | ||||||
| 08 | 19:55 | S 9 | 14.48 | Fair | CLR | 28.9 | 23.2 | 71% | 33 | 75.46 | 0.0 | ||||||
| 08 | 19:35 | S 9 | 14.48 | Fair | CLR | 28.9 | 23.3 | 72% | 33 | 75.44 | 0.0 | ||||||
| 08 | 19:15 | S 11 | 16.09 | Fair | CLR | 29.1 | 23.3 | 71% | 33 | 75.49 | 0.0 | ||||||
| 08 | 18:55 | S 13 | 14.48 | Fair | CLR | 29.3 | 23.2 | 31.2 | 28.3 | 70% | 33 | 75.46 | 0.0 | ||||
| 08 | 18:35 | S 15 | 16.09 | Fair | CLR | 29.4 | 23.4 | 70% | 34 | 75.46 | 0.0 | ||||||
| 08 | 18:15 | S 19 | 14.48 | Fair | CLR | 29.7 | 23.7 | 70% | 34 | 75.46 | 0.0 | ||||||
| 08 | 17:55 | SE 22 | 14.48 | Fair | CLR | 29.7 | 23.9 | 71% | 35 | 75.44 | 0.0 | ||||||
| 08 | 17:35 | S 15 | 12.87 | Fair | CLR | 29.8 | 23.7 | 70% | 35 | 75.46 | 0.0 | ||||||
| 08 | 17:15 | SE 19 | 14.48 | A Few Clouds | FEW370 | 30.1 | 23.8 | 69% | 35 | 75.49 | 0.0 | ||||||
| 08 | 16:55 | SE 17 | 16.09 | Fair | CLR | 30.2 | 23.9 | 69% | 35 | 75.49 | 0.0 | ||||||
| 08 | 16:35 | S 19 | 14.48 | Fair | CLR | 30 | 23.8 | 69% | 35 | 75.51 | 0.0 | ||||||
| 08 | 16:15 | S 19 | 16.09 | A Few Clouds | FEW330 | 30.6 | 23.6 | 66% | 36 | 75.51 | 0.0 | ||||||
| 08 | 15:55 | S 20 | 14.48 | A Few Clouds | FEW320 | 30.7 | 23.9 | 67% | 36 | 75.57 | 0.0 | ||||||
| 08 | 15:35 | S 19 G 30 | 16.09 | A Few Clouds | FEW320 | 30.6 | 23.6 | 66% | 36 | 75.59 | 0.0 | ||||||
| 08 | 15:15 | S 20 | 16.09 | A Few Clouds | FEW320 | 30.8 | 23.6 | 65% | 36 | 75.62 | 0.0 | ||||||
| 08 | 14:55 | SE 13 | 16.09 | A Few Clouds | FEW310 | 29.8 | 23.9 | 71% | 35 | 75.64 | 0.0 | ||||||
| 08 | 14:35 | SE 15 | 16.09 | A Few Clouds | FEW270 | 30.1 | 23.7 | 69% | 35 | 75.67 | 0.0 | ||||||
| 08 | 14:15 | SE 17 | 16.09 | A Few Clouds | FEW360 | 29.4 | 23.5 | 71% | 34 | 75.64 | 0.0 | ||||||
| 08 | 13:55 | S 13 | 16.09 | Partly Cloudy | FEW300 SCT340 SCT370 | 29.6 | 23.6 | 70% | 34 | 75.69 | 0.0 | ||||||
| 08 | 13:35 | SE 17 | 16.09 | Partly Cloudy | FEW270 SCT340 | 29.6 | 23.7 | 71% | 34 | 75.72 | 0.0 | ||||||
| 08 | 13:15 | SE 17 | 16.09 | A Few Clouds | FEW270 | 28.3 | 23.8 | 77% | 32 | 75.72 | 0.0 | ||||||
| 08 | 12:55 | Vrbl 11 | 16.09 | A Few Clouds | FEW370 | 28.8 | 23.7 | 28.9 | 19.8 | 74% | 33 | 75.77 | 0.0 | ||||
| 08 | 12:35 | Vrbl 7 | 16.09 | Fair | CLR | 27.8 | 23.9 | 79% | 32 | 75.77 | 0.0 | ||||||
| 08 | 12:15 | Vrbl 7 | 16.09 | A Few Clouds | FEW350 | 27.1 | 23.6 | 81% | 30 | 75.79 | 0.0 | ||||||
| 08 | 11:55 | SE 11 | 16.09 | A Few Clouds | FEW330 | 26.8 | 23.5 | 82% | 29 | 75.82 | 0.0 | ||||||
| 08 | 11:35 | SE 9 | 16.09 | A Few Clouds | FEW330 | 26.2 | 23.5 | 85% | 28 | 75.82 | 0.0 | ||||||
| 08 | 11:15 | SE 15 | 16.09 | A Few Clouds | FEW013 | 26 | 23.5 | 86% | 28 | 75.84 | 0.0 | ||||||
| 08 | 10:55 | E 17 | 16.09 | Partly Cloudy | SCT012 | 25.3 | 23.3 | 89% | 26 | 75.87 | 0.0 | ||||||
| 08 | 10:35 | E 13 | 16.09 | A Few Clouds | FEW010 | 24.4 | 23.1 | 93% | 24 | 75.87 | 0.0 | ||||||
| 08 | 10:15 | E 11 | 16.09 | Mostly Cloudy | BKN009 | 23.2 | 22.6 | 96% | 75.9 | 0.0 | |||||||
| 08 | 09:55 | NE 11 | 16.09 | Overcast | OVC005 | 22 | 22 | 100% | 75.92 | 0.0 | |||||||
| 08 | 09:35 | NE 11 | 16.09 | Overcast | OVC003 | 21.1 | 21.1 | 100% | 75.92 | 0.0 | |||||||
| 08 | 09:15 | NE 13 | 16.09 | Overcast | OVC003 | 20.6 | 20.6 | 100% | 75.92 | 0.0 | |||||||
| 08 | 08:55 | NE 15 | 16.09 | Overcast | OVC003 | 20.6 | 20.6 | 100% | 75.92 | 0.0 | |||||||
| 08 | 08:35 | NE 15 | 16.09 | Overcast | OVC003 | 20.6 | 20.6 | 100% | 75.92 | 0.0 | |||||||
| 08 | 08:15 | NE 11 | 16.09 | Overcast | OVC003 | 20.4 | 20.4 | 100% | 75.92 | 0.0 | |||||||
| 08 | 07:55 | Calm | 12.87 | Overcast | OVC003 | 20.3 | 20.3 | 100% | 75.92 | 0.0 | |||||||
| 08 | 07:35 | N 7 | 11.27 | Overcast | OVC003 | 20.3 | 20.3 | 100% | 75.92 | 0.0 | |||||||
| 08 | 07:15 | Vrbl 7 | 9.66 | Fog/Mist | OVC003 | 20 | 20 | 100% | 75.9 | 0.0 | |||||||
| 08 | 06:55 | NE 7 | 11.27 | Overcast | OVC002 | 19.7 | 19.7 | 20.5 | 19.6 | 100% | 75.92 | 0.0 | |||||
| 08 | 06:35 | NE 7 | 9.66 | Fog/Mist | OVC002 | 19.6 | 19.6 | 100% | 75.9 | 0.0 | |||||||
| 08 | 06:15 | N 9 | 6.44 | Fog/Mist | BKN002 OVC007 | 19.7 | 19.7 | 100% | 75.9 | 0.0 | |||||||
| 08 | 05:55 | N 6 | 8.05 | Fog/Mist | OVC004 | 19.8 | 19.8 | 100% | 75.92 | 0.0 | |||||||
| 08 | 05:35 | Calm | 9.66 | Fog/Mist | OVC005 | 19.8 | 19.8 | 100% | 75.9 | 0.0 | |||||||
| 08 | 05:15 | Calm | 9.66 | Fog/Mist | OVC005 | 19.8 | 19.8 | 100% | 75.87 | 0.0 | |||||||
| 08 | 04:55 | Calm | 12.87 | Overcast | OVC005 | 20 | 20 | 100% | 75.87 | 0.0 | |||||||
| 08 | 04:35 | Calm | 12.87 | Overcast | OVC005 | 20 | 20 | 100% | 75.87 | 0.0 | |||||||
| 08 | 04:15 | NE 7 | 12.87 | Overcast | OVC006 | 19.9 | 19.9 | 100% | 75.87 | 0.0 | |||||||
| 08 | 03:55 | N 7 | 12.87 | Overcast | OVC005 | 19.9 | 19.9 | 100% | 75.87 | 0.0 | |||||||
| 08 | 03:35 | NE 9 | 11.27 | Overcast | OVC006 | 19.9 | 19.9 | 100% | 75.87 | 0.0 | |||||||
| 08 | 03:15 | NE 9 | 14.48 | Overcast | OVC008 | 20.1 | 20.1 | 100% | 75.92 | 0.0 | |||||||
| 08 | 02:55 | Calm | 16.09 | Overcast | OVC010 | 20.3 | 20.2 | 99% | 75.95 | 0.0 | |||||||
| 08 | 02:35 | Calm | 16.09 | Overcast | OVC011 | 20.3 | 20 | 98% | 75.97 | 0.0 | |||||||
| 08 | 02:15 | N 7 | 16.09 | Overcast | OVC012 | 20.4 | 19.9 | 97% | 76 | 0.0 | |||||||
| 08 | 01:55 | N 7 | 16.09 | Overcast | OVC013 | 20.4 | 20 | 98% | 76.02 | 0.0 | |||||||
| 08 | 01:35 | Calm | 16.09 | Overcast | OVC014 | 20.5 | 19.7 | 95% | 76.05 | 0.0 | |||||||
| 08 | 01:15 | Calm | 16.09 | Overcast | OVC014 | 20.2 | 19.9 | 98% | 76.07 | 0.0 | |||||||
| 08 | 00:55 | Calm | 12.87 | Overcast | OVC014 | 20.3 | 19.6 | 22.7 | 19.9 | 96% | 76.05 | 0.0 | 0.03 | ||||
| 08 | 00:35 | Calm | 16.09 | Overcast | OVC015 | 20.3 | 19.6 | 96% | 76.02 | 0.0 | |||||||
| 08 | 00:15 | NE 6 | 16.09 | Overcast | OVC015 | 20.2 | 19.6 | 96% | 76.02 | 0.0 | |||||||
| 07 | 23:55 | N 13 | 11.27 | Overcast | OVC015 | 20 | 19.8 | 99% | 75.97 | 0.0 | |||||||
| 07 | 23:35 | N 11 | 9.66 | Fog/Mist | OVC015 | 19.9 | 19.8 | 99% | 75.95 | 0.0 | |||||||
| 07 | 23:15 | N 13 | 11.27 | Overcast | OVC016 | 19.9 | 19.9 | 100% | 75.97 | 0.0 | |||||||
| 07 | 22:55 | Calm | 16.09 | Overcast | OVC018 | 20.2 | 19.9 | 98% | 76.07 | 0.0 | |||||||
| 07 | 22:35 | SW 7 | 16.09 | Overcast | OVC017 | 20.1 | 20 | 99% | 76.12 | 0.0 | |||||||
| 07 | 22:15 | Calm | 16.09 | Mostly Cloudy | BKN015 | 20.1 | 19.9 | 99% | 76 | 0.0 | |||||||
| 07 | 21:55 | NE 17 | 16.09 | A Few Clouds | FEW016 | 20 | 19.8 | 99% | 75.84 | 0.0 | 0.03 | 0.03 | |||||
| 07 | 21:35 | E 20 | 16.09 | Light Rain | FEW002 BKN016 | 20.1 | 19.9 | 99% | 75.79 | 0.0 | 0.03 | ||||||
| 07 | 21:15 | E 11 | 11.27 | Light Rain | SCT002 BKN006 BKN016 | 20.5 | 20 | 97% | 75.92 | 0.0 | 0.03 | ||||||
| 07 | 20:55 | SE 20 | 16.09 | Light Rain | FEW019 | 21.5 | 19.6 | 89% | 75.92 | 0.0 | |||||||
| 07 | 20:35 | E 13 | 14.48 | Light Rain | SCT019 | 21.8 | 19.7 | 88% | 75.97 | 0.0 | |||||||
| 07 | 20:15 | NE 9 | 16.09 | A Few Clouds | FEW018 | 22.1 | 19.3 | 84% | 76.02 | 0.0 | |||||||
| 07 | 19:55 | E 17 | 16.09 | Fair | CLR | 22.3 | 19.3 | 83% | 75.92 | 0.0 | |||||||
| 07 | 19:35 | NE 17 | 16.09 | Fair | CLR | 22.4 | 19.4 | 83% | 75.92 | 0.0 | |||||||
| 07 | 19:15 | NE 13 | 16.09 | Fair | CLR | 22.6 | 19.4 | 82% | 75.95 | 0.0 | |||||||
| 07 | 18:55 | NE 17 | 16.09 | Fair | CLR | 22.9 | 19.4 | 24.3 | 22.8 | 81% | 75.92 | 0.0 | |||||
| 07 | 18:35 | NE 19 | 16.09 | Fair | CLR | 23 | 19.5 | 81% | 75.92 | 0.0 | |||||||
| 07 | 18:15 | NE 17 | 16.09 | Fair | CLR | 23 | 19.4 | 80% | 75.92 | 0.0 | |||||||
| 07 | 17:55 | NE 19 | 16.09 | Fair | CLR | 23.2 | 19.8 | 81% | 75.92 | 0.0 | |||||||
| 07 | 17:35 | NE 17 | 16.09 | Fair | CLR | 23.3 | 19.8 | 81% | 75.92 | 0.0 | |||||||
| 07 | 17:15 | E 17 | 16.09 | Fair | CLR | 23.9 | 20 | 79% | 24 | 75.9 | 0.0 | ||||||
| Date | Time (cdt) | Wind (kph) | Vis. (km) | Weather | Sky Cond. | Air | Dwpt | Max. | Min. | Relative Humidity | Wind Chill (°C) | Heat Index (°C) | altimeter (cm) | sea level (mb) | 1 hr | 3 hr | 6 hr |
| 6 hour | |||||||||||||||||
| Temperature (ºC) | Pressure | Precipitation (cm) | |||||||||||||||